Decoded Metar for KMYJ ( in ) (IATA:) | Meteo·Mobile Aviation Weather
aviador You're here:

KMYJ Decoded Metar

in
Report Time2019-01-19 02:15:00
UTC Time2019-01-19 02:11:47
Flight Rules lifr LIFR
Wind090° at 13 kt
W.Decomp.*RWY 06: 11.3 kt HW 6.5 kt RCW
RWY 18: 13 kt LCW
W.Rank090° ranks 26
Current wind is above 090° avg. (6.0)
Visibility2816 m
Phenomena:Light Rain
Clouds:Overcast 003 Hf
Ceiling300 ft
Temp00°C
Dew Point00°C (100% RH)
AAT-6.7°C
QNH1011 hPa
Raw Report
KMYJ 190215Z AUTO 09013KT 1 3/4SM -RA OVC003 00/00 A2986 RMK AO2
P0002 LTG DSNT S=

Extra information for KMYJ:More info

Social comments